<?xml version="1.0" encoding="UTF-8" standalone="no" ?>
<gpx xmlns="http://www.topografix.com/GPX/1/1" xmlns:xsi="http://www.w3.org/2001/XMLSchema-instance" xsi:schemaLocation="http://www.topografix.com/GPX/1/1 http://www.topografix.com/GPX/1/1/gpx.xsd" version="1.1" creator="VisuGPX - https://www.visugpx.com">
  <metadata>
    <name>Jas des Melettes - Combe Brune - Stèle - La Grande Côte - Font d'Anjou - Perrache</name>
  </metadata>
  <wpt lat="44.13468" lon="5.30042">
    <ele>1142</ele>
    <name><![CDATA[Point de passage 1]]></name>
  </wpt>
  <wpt lat="44.13465" lon="5.30035">
    <ele>1142</ele>
    <name><![CDATA[Point de passage 2]]></name>
  </wpt>
  <trk>
    <name><![CDATA[Randonnée du 21/06/2025 à 15:00]]></name>
    <extensions>
      <line xmlns="http://www.topografix.com/GPX/gpx_style/0/2">
        <color>0000FF</color>
        <width>4</width>
      </line>
    </extensions>
    <trkseg>
      <trkpt lat="44.13468" lon="5.30042">
        <ele>1142</ele>
        <time>2026-07-12T17:31:49.000Z</time>
      </trkpt>
      <trkpt lat="44.13457" lon="5.30049">
        <ele>1145</ele>
        <time>2026-07-12T17:32:33.000Z</time>
      </trkpt>
      <trkpt lat="44.13455" lon="5.30076">
        <ele>1150</ele>
        <time>2026-07-12T17:33:46.000Z</time>
      </trkpt>
      <trkpt lat="44.13456" lon="5.30097">
        <ele>1154</ele>
        <time>2026-07-12T17:34:44.000Z</time>
      </trkpt>
      <trkpt lat="44.13442" lon="5.30127">
        <ele>1163</ele>
        <time>2026-07-12T17:36:46.000Z</time>
      </trkpt>
      <trkpt lat="44.13436" lon="5.3016">
        <ele>1168</ele>
        <time>2026-07-12T17:38:06.000Z</time>
      </trkpt>
      <trkpt lat="44.13418" lon="5.30195">
        <ele>1173</ele>
        <time>2026-07-12T17:39:33.000Z</time>
      </trkpt>
      <trkpt lat="44.13401" lon="5.30229">
        <ele>1175</ele>
        <time>2026-07-12T17:40:28.000Z</time>
      </trkpt>
      <trkpt lat="44.134" lon="5.3026">
        <ele>1175</ele>
        <time>2026-07-12T17:40:54.000Z</time>
      </trkpt>
      <trkpt lat="44.13409" lon="5.30285">
        <ele>1178</ele>
        <time>2026-07-12T17:41:48.000Z</time>
      </trkpt>
      <trkpt lat="44.13423" lon="5.30316">
        <ele>1181</ele>
        <time>2026-07-12T17:42:49.000Z</time>
      </trkpt>
      <trkpt lat="44.13436" lon="5.30345">
        <ele>1183</ele>
        <time>2026-07-12T17:43:37.000Z</time>
      </trkpt>
      <trkpt lat="44.1345" lon="5.30373">
        <ele>1185</ele>
        <time>2026-07-12T17:44:26.000Z</time>
      </trkpt>
      <trkpt lat="44.13463" lon="5.30396">
        <ele>1187</ele>
        <time>2026-07-12T17:45:10.000Z</time>
      </trkpt>
      <trkpt lat="44.13479" lon="5.30489">
        <ele>1187</ele>
        <time>2026-07-12T17:46:28.000Z</time>
      </trkpt>
      <trkpt lat="44.13489" lon="5.3052">
        <ele>1188</ele>
        <time>2026-07-12T17:47:06.000Z</time>
      </trkpt>
      <trkpt lat="44.13494" lon="5.30564">
        <ele>1190</ele>
        <time>2026-07-12T17:48:03.000Z</time>
      </trkpt>
      <trkpt lat="44.1351" lon="5.30601">
        <ele>1192</ele>
        <time>2026-07-12T17:48:59.000Z</time>
      </trkpt>
      <trkpt lat="44.13519" lon="5.30652">
        <ele>1195</ele>
        <time>2026-07-12T17:50:13.000Z</time>
      </trkpt>
      <trkpt lat="44.13531" lon="5.30676">
        <ele>1196</ele>
        <time>2026-07-12T17:50:48.000Z</time>
      </trkpt>
      <trkpt lat="44.13513" lon="5.30715">
        <ele>1198</ele>
        <time>2026-07-12T17:51:46.000Z</time>
      </trkpt>
      <trkpt lat="44.13502" lon="5.30757">
        <ele>1198</ele>
        <time>2026-07-12T17:52:23.000Z</time>
      </trkpt>
      <trkpt lat="44.13492" lon="5.30849">
        <ele>1200</ele>
        <time>2026-07-12T17:54:00.000Z</time>
      </trkpt>
      <trkpt lat="44.13479" lon="5.30929">
        <ele>1198</ele>
        <time>2026-07-12T17:55:08.000Z</time>
      </trkpt>
      <trkpt lat="44.13472" lon="5.30992">
        <ele>1198</ele>
        <time>2026-07-12T17:56:01.000Z</time>
      </trkpt>
      <trkpt lat="44.13453" lon="5.31091">
        <ele>1198</ele>
        <time>2026-07-12T17:57:25.000Z</time>
      </trkpt>
      <trkpt lat="44.13442" lon="5.31158">
        <ele>1201</ele>
        <time>2026-07-12T17:58:52.000Z</time>
      </trkpt>
      <trkpt lat="44.13428" lon="5.3121">
        <ele>1202</ele>
        <time>2026-07-12T17:59:48.000Z</time>
      </trkpt>
      <trkpt lat="44.13422" lon="5.31275">
        <ele>1205</ele>
        <time>2026-07-12T18:01:12.000Z</time>
      </trkpt>
      <trkpt lat="44.13418" lon="5.31306">
        <ele>1206</ele>
        <time>2026-07-12T18:01:49.000Z</time>
      </trkpt>
      <trkpt lat="44.1341" lon="5.31337">
        <ele>1207</ele>
        <time>2026-07-12T18:02:26.000Z</time>
      </trkpt>
      <trkpt lat="44.13401" lon="5.31383">
        <ele>1209</ele>
        <time>2026-07-12T18:03:26.000Z</time>
      </trkpt>
      <trkpt lat="44.13401" lon="5.31425">
        <ele>1210</ele>
        <time>2026-07-12T18:04:11.000Z</time>
      </trkpt>
      <trkpt lat="44.13423" lon="5.31466">
        <ele>1211</ele>
        <time>2026-07-12T18:05:03.000Z</time>
      </trkpt>
      <trkpt lat="44.13447" lon="5.31483">
        <ele>1214</ele>
        <time>2026-07-12T18:06:05.000Z</time>
      </trkpt>
      <trkpt lat="44.13472" lon="5.31491">
        <ele>1217</ele>
        <time>2026-07-12T18:07:05.000Z</time>
      </trkpt>
      <trkpt lat="44.13518" lon="5.31507">
        <ele>1223</ele>
        <time>2026-07-12T18:09:02.000Z</time>
      </trkpt>
      <trkpt lat="44.13552" lon="5.31509">
        <ele>1225</ele>
        <time>2026-07-12T18:10:01.000Z</time>
      </trkpt>
      <trkpt lat="44.13626" lon="5.31531">
        <ele>1236</ele>
        <time>2026-07-12T18:13:21.000Z</time>
      </trkpt>
      <trkpt lat="44.13729" lon="5.31567">
        <ele>1254</ele>
        <time>2026-07-12T18:18:27.000Z</time>
      </trkpt>
      <trkpt lat="44.13759" lon="5.31581">
        <ele>1258</ele>
        <time>2026-07-12T18:19:45.000Z</time>
      </trkpt>
      <trkpt lat="44.13794" lon="5.31604">
        <ele>1266</ele>
        <time>2026-07-12T18:21:52.000Z</time>
      </trkpt>
      <trkpt lat="44.13829" lon="5.31639">
        <ele>1272</ele>
        <time>2026-07-12T18:23:43.000Z</time>
      </trkpt>
      <trkpt lat="44.13888" lon="5.31709">
        <ele>1283</ele>
        <time>2026-07-12T18:27:05.000Z</time>
      </trkpt>
      <trkpt lat="44.13954" lon="5.31792">
        <ele>1293</ele>
        <time>2026-07-12T18:30:30.000Z</time>
      </trkpt>
      <trkpt lat="44.13998" lon="5.31884">
        <ele>1301</ele>
        <time>2026-07-12T18:33:23.000Z</time>
      </trkpt>
      <trkpt lat="44.14012" lon="5.31935">
        <ele>1305</ele>
        <time>2026-07-12T18:34:49.000Z</time>
      </trkpt>
      <trkpt lat="44.14023" lon="5.31962">
        <ele>1306</ele>
        <time>2026-07-12T18:35:25.000Z</time>
      </trkpt>
      <trkpt lat="44.14046" lon="5.31998">
        <ele>1308</ele>
        <time>2026-07-12T18:36:25.000Z</time>
      </trkpt>
      <trkpt lat="44.14064" lon="5.32047">
        <ele>1310</ele>
        <time>2026-07-12T18:37:31.000Z</time>
      </trkpt>
      <trkpt lat="44.14089" lon="5.32163">
        <ele>1317</ele>
        <time>2026-07-12T18:40:23.000Z</time>
      </trkpt>
      <trkpt lat="44.14101" lon="5.32244">
        <ele>1322</ele>
        <time>2026-07-12T18:42:23.000Z</time>
      </trkpt>
      <trkpt lat="44.14111" lon="5.32275">
        <ele>1325</ele>
        <time>2026-07-12T18:43:21.000Z</time>
      </trkpt>
      <trkpt lat="44.14129" lon="5.32302">
        <ele>1326</ele>
        <time>2026-07-12T18:44:02.000Z</time>
      </trkpt>
      <trkpt lat="44.14148" lon="5.32311">
        <ele>1328</ele>
        <time>2026-07-12T18:44:46.000Z</time>
      </trkpt>
      <trkpt lat="44.14182" lon="5.3233">
        <ele>1329</ele>
        <time>2026-07-12T18:45:38.000Z</time>
      </trkpt>
      <trkpt lat="44.14208" lon="5.32336">
        <ele>1329</ele>
        <time>2026-07-12T18:46:08.000Z</time>
      </trkpt>
      <trkpt lat="44.14253" lon="5.32339">
        <ele>1329</ele>
        <time>2026-07-12T18:46:59.000Z</time>
      </trkpt>
      <trkpt lat="44.1426" lon="5.32334">
        <ele>1330</ele>
        <time>2026-07-12T18:47:18.000Z</time>
      </trkpt>
      <trkpt lat="44.14266" lon="5.32343">
        <ele>1329</ele>
        <time>2026-07-12T18:47:29.000Z</time>
      </trkpt>
      <trkpt lat="44.14287" lon="5.32357">
        <ele>1328</ele>
        <time>2026-07-12T18:47:55.000Z</time>
      </trkpt>
      <trkpt lat="44.14304" lon="5.32384">
        <ele>1330</ele>
        <time>2026-07-12T18:48:45.000Z</time>
      </trkpt>
      <trkpt lat="44.14339" lon="5.32404">
        <ele>1330</ele>
        <time>2026-07-12T18:49:29.000Z</time>
      </trkpt>
      <trkpt lat="44.14365" lon="5.32425">
        <ele>1329</ele>
        <time>2026-07-12T18:50:03.000Z</time>
      </trkpt>
      <trkpt lat="44.14393" lon="5.32447">
        <ele>1333</ele>
        <time>2026-07-12T18:51:21.000Z</time>
      </trkpt>
      <trkpt lat="44.14423" lon="5.32473">
        <ele>1332</ele>
        <time>2026-07-12T18:52:01.000Z</time>
      </trkpt>
      <trkpt lat="44.14447" lon="5.32497">
        <ele>1334</ele>
        <time>2026-07-12T18:52:55.000Z</time>
      </trkpt>
      <trkpt lat="44.14471" lon="5.32522">
        <ele>1333</ele>
        <time>2026-07-12T18:53:29.000Z</time>
      </trkpt>
      <trkpt lat="44.14513" lon="5.32566">
        <ele>1334</ele>
        <time>2026-07-12T18:54:39.000Z</time>
      </trkpt>
      <trkpt lat="44.14553" lon="5.32584">
        <ele>1333</ele>
        <time>2026-07-12T18:55:27.000Z</time>
      </trkpt>
      <trkpt lat="44.14585" lon="5.32584">
        <ele>1333</ele>
        <time>2026-07-12T18:56:04.000Z</time>
      </trkpt>
      <trkpt lat="44.14618" lon="5.32562">
        <ele>1332</ele>
        <time>2026-07-12T18:56:46.000Z</time>
      </trkpt>
      <trkpt lat="44.14696" lon="5.32516">
        <ele>1334</ele>
        <time>2026-07-12T18:58:43.000Z</time>
      </trkpt>
      <trkpt lat="44.14731" lon="5.32506">
        <ele>1334</ele>
        <time>2026-07-12T18:59:24.000Z</time>
      </trkpt>
      <trkpt lat="44.14766" lon="5.32504">
        <ele>1335</ele>
        <time>2026-07-12T19:00:15.000Z</time>
      </trkpt>
      <trkpt lat="44.14827" lon="5.3251">
        <ele>1336</ele>
        <time>2026-07-12T19:01:35.000Z</time>
      </trkpt>
      <trkpt lat="44.14892" lon="5.32534">
        <ele>1340</ele>
        <time>2026-07-12T19:03:33.000Z</time>
      </trkpt>
      <trkpt lat="44.14909" lon="5.32541">
        <ele>1343</ele>
        <time>2026-07-12T19:04:25.000Z</time>
      </trkpt>
      <trkpt lat="44.14917" lon="5.32557">
        <ele>1341</ele>
        <time>2026-07-12T19:04:41.000Z</time>
      </trkpt>
      <trkpt lat="44.14909" lon="5.32565">
        <ele>1343</ele>
        <time>2026-07-12T19:05:13.000Z</time>
      </trkpt>
      <trkpt lat="44.14854" lon="5.32565">
        <ele>1345</ele>
        <time>2026-07-12T19:06:37.000Z</time>
      </trkpt>
      <trkpt lat="44.14826" lon="5.32565">
        <ele>1345</ele>
        <time>2026-07-12T19:07:10.000Z</time>
      </trkpt>
      <trkpt lat="44.14787" lon="5.32575">
        <ele>1346</ele>
        <time>2026-07-12T19:08:06.000Z</time>
      </trkpt>
      <trkpt lat="44.14753" lon="5.32601">
        <ele>1349</ele>
        <time>2026-07-12T19:09:20.000Z</time>
      </trkpt>
      <trkpt lat="44.14744" lon="5.32614">
        <ele>1351</ele>
        <time>2026-07-12T19:09:56.000Z</time>
      </trkpt>
      <trkpt lat="44.14741" lon="5.32629">
        <ele>1351</ele>
        <time>2026-07-12T19:10:09.000Z</time>
      </trkpt>
      <trkpt lat="44.14746" lon="5.32641">
        <ele>1354</ele>
        <time>2026-07-12T19:10:51.000Z</time>
      </trkpt>
      <trkpt lat="44.14773" lon="5.32674">
        <ele>1356</ele>
        <time>2026-07-12T19:11:53.000Z</time>
      </trkpt>
      <trkpt lat="44.14809" lon="5.32719">
        <ele>1362</ele>
        <time>2026-07-12T19:13:51.000Z</time>
      </trkpt>
      <trkpt lat="44.14848" lon="5.32783">
        <ele>1375</ele>
        <time>2026-07-12T19:17:14.000Z</time>
      </trkpt>
      <trkpt lat="44.14861" lon="5.32814">
        <ele>1376</ele>
        <time>2026-07-12T19:17:54.000Z</time>
      </trkpt>
      <trkpt lat="44.14863" lon="5.3287">
        <ele>1375</ele>
        <time>2026-07-12T19:18:40.000Z</time>
      </trkpt>
      <trkpt lat="44.14849" lon="5.32962">
        <ele>1373</ele>
        <time>2026-07-12T19:19:57.000Z</time>
      </trkpt>
      <trkpt lat="44.14854" lon="5.3299">
        <ele>1380</ele>
        <time>2026-07-12T19:21:32.000Z</time>
      </trkpt>
      <trkpt lat="44.14857" lon="5.33022">
        <ele>1379</ele>
        <time>2026-07-12T19:21:59.000Z</time>
      </trkpt>
      <trkpt lat="44.14859" lon="5.33031">
        <ele>1380</ele>
        <time>2026-07-12T19:22:17.000Z</time>
      </trkpt>
      <trkpt lat="44.14872" lon="5.33039">
        <ele>1387</ele>
        <time>2026-07-12T19:23:45.000Z</time>
      </trkpt>
      <trkpt lat="44.14857" lon="5.33059">
        <ele>1375</ele>
        <time>2026-07-12T19:24:08.000Z</time>
      </trkpt>
      <trkpt lat="44.14851" lon="5.33085">
        <ele>1368</ele>
        <time>2026-07-12T19:24:31.000Z</time>
      </trkpt>
      <trkpt lat="44.14863" lon="5.33123">
        <ele>1369</ele>
        <time>2026-07-12T19:25:15.000Z</time>
      </trkpt>
      <trkpt lat="44.1488" lon="5.33147">
        <ele>1375</ele>
        <time>2026-07-12T19:26:45.000Z</time>
      </trkpt>
      <trkpt lat="44.14892" lon="5.33184">
        <ele>1376</ele>
        <time>2026-07-12T19:27:28.000Z</time>
      </trkpt>
      <trkpt lat="44.14898" lon="5.33212">
        <ele>1380</ele>
        <time>2026-07-12T19:28:33.000Z</time>
      </trkpt>
      <trkpt lat="44.14891" lon="5.33223">
        <ele>1381</ele>
        <time>2026-07-12T19:28:55.000Z</time>
      </trkpt>
      <trkpt lat="44.14872" lon="5.33206">
        <ele>1380</ele>
        <time>2026-07-12T19:29:20.000Z</time>
      </trkpt>
      <trkpt lat="44.14842" lon="5.33208">
        <ele>1391</ele>
        <time>2026-07-12T19:31:48.000Z</time>
      </trkpt>
      <trkpt lat="44.1484" lon="5.33238">
        <ele>1398</ele>
        <time>2026-07-12T19:33:25.000Z</time>
      </trkpt>
      <trkpt lat="44.14876" lon="5.33253">
        <ele>1395</ele>
        <time>2026-07-12T19:34:08.000Z</time>
      </trkpt>
      <trkpt lat="44.14886" lon="5.33266">
        <ele>1396</ele>
        <time>2026-07-12T19:34:34.000Z</time>
      </trkpt>
      <trkpt lat="44.1488" lon="5.3328">
        <ele>1396</ele>
        <time>2026-07-12T19:34:47.000Z</time>
      </trkpt>
      <trkpt lat="44.1488" lon="5.33299">
        <ele>1395</ele>
        <time>2026-07-12T19:35:03.000Z</time>
      </trkpt>
      <trkpt lat="44.14889" lon="5.33314">
        <ele>1395</ele>
        <time>2026-07-12T19:35:19.000Z</time>
      </trkpt>
      <trkpt lat="44.14905" lon="5.33345">
        <ele>1393</ele>
        <time>2026-07-12T19:35:50.000Z</time>
      </trkpt>
      <trkpt lat="44.14922" lon="5.3338">
        <ele>1392</ele>
        <time>2026-07-12T19:36:24.000Z</time>
      </trkpt>
      <trkpt lat="44.14936" lon="5.33405">
        <ele>1391</ele>
        <time>2026-07-12T19:36:50.000Z</time>
      </trkpt>
      <trkpt lat="44.14936" lon="5.33422">
        <ele>1391</ele>
        <time>2026-07-12T19:37:03.000Z</time>
      </trkpt>
      <trkpt lat="44.14895" lon="5.33386">
        <ele>1382</ele>
        <time>2026-07-12T19:37:58.000Z</time>
      </trkpt>
      <trkpt lat="44.14871" lon="5.3336">
        <ele>1377</ele>
        <time>2026-07-12T19:38:33.000Z</time>
      </trkpt>
      <trkpt lat="44.14844" lon="5.33352">
        <ele>1370</ele>
        <time>2026-07-12T19:39:05.000Z</time>
      </trkpt>
      <trkpt lat="44.14811" lon="5.33346">
        <ele>1360</ele>
        <time>2026-07-12T19:39:43.000Z</time>
      </trkpt>
      <trkpt lat="44.14785" lon="5.33341">
        <ele>1356</ele>
        <time>2026-07-12T19:40:12.000Z</time>
      </trkpt>
      <trkpt lat="44.14764" lon="5.33343">
        <ele>1350</ele>
        <time>2026-07-12T19:40:37.000Z</time>
      </trkpt>
      <trkpt lat="44.14736" lon="5.33346">
        <ele>1345</ele>
        <time>2026-07-12T19:41:09.000Z</time>
      </trkpt>
      <trkpt lat="44.14711" lon="5.33352">
        <ele>1341</ele>
        <time>2026-07-12T19:41:38.000Z</time>
      </trkpt>
      <trkpt lat="44.1468" lon="5.33349">
        <ele>1337</ele>
        <time>2026-07-12T19:42:13.000Z</time>
      </trkpt>
      <trkpt lat="44.14657" lon="5.33343">
        <ele>1335</ele>
        <time>2026-07-12T19:42:40.000Z</time>
      </trkpt>
      <trkpt lat="44.14627" lon="5.33336">
        <ele>1334</ele>
        <time>2026-07-12T19:43:15.000Z</time>
      </trkpt>
      <trkpt lat="44.14598" lon="5.33329">
        <ele>1330</ele>
        <time>2026-07-12T19:43:49.000Z</time>
      </trkpt>
      <trkpt lat="44.14563" lon="5.33316">
        <ele>1327</ele>
        <time>2026-07-12T19:44:30.000Z</time>
      </trkpt>
      <trkpt lat="44.14528" lon="5.33302">
        <ele>1325</ele>
        <time>2026-07-12T19:45:11.000Z</time>
      </trkpt>
      <trkpt lat="44.14511" lon="5.33292">
        <ele>1323</ele>
        <time>2026-07-12T19:45:33.000Z</time>
      </trkpt>
      <trkpt lat="44.14446" lon="5.33297">
        <ele>1326</ele>
        <time>2026-07-12T19:47:18.000Z</time>
      </trkpt>
      <trkpt lat="44.14416" lon="5.33296">
        <ele>1330</ele>
        <time>2026-07-12T19:48:34.000Z</time>
      </trkpt>
      <trkpt lat="44.14366" lon="5.33298">
        <ele>1334</ele>
        <time>2026-07-12T19:50:13.000Z</time>
      </trkpt>
      <trkpt lat="44.14344" lon="5.33267">
        <ele>1332</ele>
        <time>2026-07-12T19:50:49.000Z</time>
      </trkpt>
      <trkpt lat="44.14332" lon="5.3325">
        <ele>1332</ele>
        <time>2026-07-12T19:51:09.000Z</time>
      </trkpt>
      <trkpt lat="44.14322" lon="5.33241">
        <ele>1331</ele>
        <time>2026-07-12T19:51:22.000Z</time>
      </trkpt>
      <trkpt lat="44.14312" lon="5.33239">
        <ele>1329</ele>
        <time>2026-07-12T19:51:34.000Z</time>
      </trkpt>
      <trkpt lat="44.14321" lon="5.33261">
        <ele>1330</ele>
        <time>2026-07-12T19:52:05.000Z</time>
      </trkpt>
      <trkpt lat="44.14325" lon="5.33298">
        <ele>1328</ele>
        <time>2026-07-12T19:52:35.000Z</time>
      </trkpt>
      <trkpt lat="44.14328" lon="5.33332">
        <ele>1327</ele>
        <time>2026-07-12T19:53:04.000Z</time>
      </trkpt>
      <trkpt lat="44.14339" lon="5.33383">
        <ele>1325</ele>
        <time>2026-07-12T19:53:47.000Z</time>
      </trkpt>
      <trkpt lat="44.1435" lon="5.33425">
        <ele>1324</ele>
        <time>2026-07-12T19:54:24.000Z</time>
      </trkpt>
      <trkpt lat="44.14359" lon="5.33477">
        <ele>1323</ele>
        <time>2026-07-12T19:55:08.000Z</time>
      </trkpt>
      <trkpt lat="44.14362" lon="5.33507">
        <ele>1323</ele>
        <time>2026-07-12T19:55:33.000Z</time>
      </trkpt>
      <trkpt lat="44.14362" lon="5.33523">
        <ele>1323</ele>
        <time>2026-07-12T19:55:46.000Z</time>
      </trkpt>
      <trkpt lat="44.14351" lon="5.33541">
        <ele>1323</ele>
        <time>2026-07-12T19:56:06.000Z</time>
      </trkpt>
      <trkpt lat="44.14312" lon="5.3355">
        <ele>1320</ele>
        <time>2026-07-12T19:56:50.000Z</time>
      </trkpt>
      <trkpt lat="44.14284" lon="5.33555">
        <ele>1319</ele>
        <time>2026-07-12T19:57:23.000Z</time>
      </trkpt>
      <trkpt lat="44.14246" lon="5.33567">
        <ele>1318</ele>
        <time>2026-07-12T19:58:08.000Z</time>
      </trkpt>
      <trkpt lat="44.14228" lon="5.3358">
        <ele>1317</ele>
        <time>2026-07-12T19:58:32.000Z</time>
      </trkpt>
      <trkpt lat="44.14217" lon="5.33594">
        <ele>1317</ele>
        <time>2026-07-12T19:58:49.000Z</time>
      </trkpt>
      <trkpt lat="44.14208" lon="5.33617">
        <ele>1316</ele>
        <time>2026-07-12T19:59:10.000Z</time>
      </trkpt>
      <trkpt lat="44.14205" lon="5.33639">
        <ele>1316</ele>
        <time>2026-07-12T19:59:28.000Z</time>
      </trkpt>
      <trkpt lat="44.14213" lon="5.3369">
        <ele>1316</ele>
        <time>2026-07-12T20:00:11.000Z</time>
      </trkpt>
      <trkpt lat="44.14229" lon="5.33754">
        <ele>1314</ele>
        <time>2026-07-12T20:01:07.000Z</time>
      </trkpt>
      <trkpt lat="44.14247" lon="5.33787">
        <ele>1312</ele>
        <time>2026-07-12T20:01:42.000Z</time>
      </trkpt>
      <trkpt lat="44.14262" lon="5.33805">
        <ele>1312</ele>
        <time>2026-07-12T20:02:05.000Z</time>
      </trkpt>
      <trkpt lat="44.14266" lon="5.3382">
        <ele>1311</ele>
        <time>2026-07-12T20:02:17.000Z</time>
      </trkpt>
      <trkpt lat="44.14264" lon="5.3383">
        <ele>1313</ele>
        <time>2026-07-12T20:02:46.000Z</time>
      </trkpt>
      <trkpt lat="44.14246" lon="5.33831">
        <ele>1313</ele>
        <time>2026-07-12T20:03:06.000Z</time>
      </trkpt>
      <trkpt lat="44.14222" lon="5.33824">
        <ele>1312</ele>
        <time>2026-07-12T20:03:34.000Z</time>
      </trkpt>
      <trkpt lat="44.142" lon="5.3383">
        <ele>1313</ele>
        <time>2026-07-12T20:04:10.000Z</time>
      </trkpt>
      <trkpt lat="44.14181" lon="5.3385">
        <ele>1315</ele>
        <time>2026-07-12T20:04:58.000Z</time>
      </trkpt>
      <trkpt lat="44.14166" lon="5.33871">
        <ele>1316</ele>
        <time>2026-07-12T20:05:33.000Z</time>
      </trkpt>
      <trkpt lat="44.14134" lon="5.33928">
        <ele>1315</ele>
        <time>2026-07-12T20:06:33.000Z</time>
      </trkpt>
      <trkpt lat="44.14097" lon="5.33993">
        <ele>1313</ele>
        <time>2026-07-12T20:07:41.000Z</time>
      </trkpt>
      <trkpt lat="44.14063" lon="5.34038">
        <ele>1310</ele>
        <time>2026-07-12T20:08:35.000Z</time>
      </trkpt>
      <trkpt lat="44.14038" lon="5.34084">
        <ele>1308</ele>
        <time>2026-07-12T20:09:22.000Z</time>
      </trkpt>
      <trkpt lat="44.14006" lon="5.34128">
        <ele>1304</ele>
        <time>2026-07-12T20:10:14.000Z</time>
      </trkpt>
      <trkpt lat="44.14003" lon="5.34146">
        <ele>1304</ele>
        <time>2026-07-12T20:10:29.000Z</time>
      </trkpt>
      <trkpt lat="44.14012" lon="5.34175">
        <ele>1303</ele>
        <time>2026-07-12T20:10:55.000Z</time>
      </trkpt>
      <trkpt lat="44.14026" lon="5.3422">
        <ele>1306</ele>
        <time>2026-07-12T20:12:06.000Z</time>
      </trkpt>
      <trkpt lat="44.14026" lon="5.34237">
        <ele>1306</ele>
        <time>2026-07-12T20:12:21.000Z</time>
      </trkpt>
      <trkpt lat="44.14013" lon="5.34258">
        <ele>1306</ele>
        <time>2026-07-12T20:12:43.000Z</time>
      </trkpt>
      <trkpt lat="44.13972" lon="5.34293">
        <ele>1302</ele>
        <time>2026-07-12T20:13:38.000Z</time>
      </trkpt>
      <trkpt lat="44.13909" lon="5.34342">
        <ele>1299</ele>
        <time>2026-07-12T20:15:00.000Z</time>
      </trkpt>
      <trkpt lat="44.13878" lon="5.34369">
        <ele>1299</ele>
        <time>2026-07-12T20:15:42.000Z</time>
      </trkpt>
      <trkpt lat="44.13822" lon="5.34412">
        <ele>1296</ele>
        <time>2026-07-12T20:16:55.000Z</time>
      </trkpt>
      <trkpt lat="44.13787" lon="5.34444">
        <ele>1294</ele>
        <time>2026-07-12T20:17:43.000Z</time>
      </trkpt>
      <trkpt lat="44.13745" lon="5.34518">
        <ele>1294</ele>
        <time>2026-07-12T20:19:01.000Z</time>
      </trkpt>
      <trkpt lat="44.13725" lon="5.3456">
        <ele>1294</ele>
        <time>2026-07-12T20:19:42.000Z</time>
      </trkpt>
      <trkpt lat="44.13677" lon="5.34568">
        <ele>1290</ele>
        <time>2026-07-12T20:20:37.000Z</time>
      </trkpt>
      <trkpt lat="44.13638" lon="5.34581">
        <ele>1287</ele>
        <time>2026-07-12T20:21:23.000Z</time>
      </trkpt>
      <trkpt lat="44.13618" lon="5.34592">
        <ele>1285</ele>
        <time>2026-07-12T20:21:48.000Z</time>
      </trkpt>
      <trkpt lat="44.13583" lon="5.34622">
        <ele>1279</ele>
        <time>2026-07-12T20:22:35.000Z</time>
      </trkpt>
      <trkpt lat="44.13539" lon="5.34669">
        <ele>1273</ele>
        <time>2026-07-12T20:23:39.000Z</time>
      </trkpt>
      <trkpt lat="44.13519" lon="5.34699">
        <ele>1270</ele>
        <time>2026-07-12T20:24:13.000Z</time>
      </trkpt>
      <trkpt lat="44.13496" lon="5.34717">
        <ele>1268</ele>
        <time>2026-07-12T20:24:43.000Z</time>
      </trkpt>
      <trkpt lat="44.1348" lon="5.34727">
        <ele>1266</ele>
        <time>2026-07-12T20:25:03.000Z</time>
      </trkpt>
      <trkpt lat="44.13474" lon="5.34718">
        <ele>1266</ele>
        <time>2026-07-12T20:25:13.000Z</time>
      </trkpt>
      <trkpt lat="44.13476" lon="5.34675">
        <ele>1265</ele>
        <time>2026-07-12T20:25:49.000Z</time>
      </trkpt>
      <trkpt lat="44.13465" lon="5.34609">
        <ele>1265</ele>
        <time>2026-07-12T20:26:44.000Z</time>
      </trkpt>
      <trkpt lat="44.13457" lon="5.34576">
        <ele>1266</ele>
        <time>2026-07-12T20:27:23.000Z</time>
      </trkpt>
      <trkpt lat="44.13448" lon="5.34539">
        <ele>1265</ele>
        <time>2026-07-12T20:27:55.000Z</time>
      </trkpt>
      <trkpt lat="44.13445" lon="5.34489">
        <ele>1266</ele>
        <time>2026-07-12T20:28:47.000Z</time>
      </trkpt>
      <trkpt lat="44.1345" lon="5.34462">
        <ele>1266</ele>
        <time>2026-07-12T20:29:10.000Z</time>
      </trkpt>
      <trkpt lat="44.13467" lon="5.34431">
        <ele>1266</ele>
        <time>2026-07-12T20:29:43.000Z</time>
      </trkpt>
      <trkpt lat="44.13493" lon="5.34405">
        <ele>1266</ele>
        <time>2026-07-12T20:30:20.000Z</time>
      </trkpt>
      <trkpt lat="44.13517" lon="5.34391">
        <ele>1266</ele>
        <time>2026-07-12T20:30:50.000Z</time>
      </trkpt>
      <trkpt lat="44.13548" lon="5.34376">
        <ele>1266</ele>
        <time>2026-07-12T20:31:27.000Z</time>
      </trkpt>
      <trkpt lat="44.13599" lon="5.34363">
        <ele>1266</ele>
        <time>2026-07-12T20:32:26.000Z</time>
      </trkpt>
      <trkpt lat="44.13631" lon="5.34359">
        <ele>1266</ele>
        <time>2026-07-12T20:33:03.000Z</time>
      </trkpt>
      <trkpt lat="44.13681" lon="5.34361">
        <ele>1267</ele>
        <time>2026-07-12T20:34:11.000Z</time>
      </trkpt>
      <trkpt lat="44.13692" lon="5.34349">
        <ele>1267</ele>
        <time>2026-07-12T20:34:27.000Z</time>
      </trkpt>
      <trkpt lat="44.13697" lon="5.34323">
        <ele>1267</ele>
        <time>2026-07-12T20:34:49.000Z</time>
      </trkpt>
      <trkpt lat="44.13713" lon="5.34303">
        <ele>1268</ele>
        <time>2026-07-12T20:35:24.000Z</time>
      </trkpt>
      <trkpt lat="44.13766" lon="5.34274">
        <ele>1267</ele>
        <time>2026-07-12T20:36:30.000Z</time>
      </trkpt>
      <trkpt lat="44.138" lon="5.34256">
        <ele>1269</ele>
        <time>2026-07-12T20:37:32.000Z</time>
      </trkpt>
      <trkpt lat="44.13814" lon="5.34246">
        <ele>1268</ele>
        <time>2026-07-12T20:37:50.000Z</time>
      </trkpt>
      <trkpt lat="44.13816" lon="5.34235">
        <ele>1267</ele>
        <time>2026-07-12T20:37:59.000Z</time>
      </trkpt>
      <trkpt lat="44.13811" lon="5.34225">
        <ele>1269</ele>
        <time>2026-07-12T20:38:30.000Z</time>
      </trkpt>
      <trkpt lat="44.13757" lon="5.34203">
        <ele>1269</ele>
        <time>2026-07-12T20:39:35.000Z</time>
      </trkpt>
      <trkpt lat="44.13715" lon="5.34195">
        <ele>1267</ele>
        <time>2026-07-12T20:40:23.000Z</time>
      </trkpt>
      <trkpt lat="44.13697" lon="5.34183">
        <ele>1268</ele>
        <time>2026-07-12T20:40:57.000Z</time>
      </trkpt>
      <trkpt lat="44.13665" lon="5.34153">
        <ele>1267</ele>
        <time>2026-07-12T20:41:41.000Z</time>
      </trkpt>
      <trkpt lat="44.1365" lon="5.34133">
        <ele>1268</ele>
        <time>2026-07-12T20:42:15.000Z</time>
      </trkpt>
      <trkpt lat="44.13633" lon="5.34096">
        <ele>1267</ele>
        <time>2026-07-12T20:42:51.000Z</time>
      </trkpt>
      <trkpt lat="44.13621" lon="5.3406">
        <ele>1268</ele>
        <time>2026-07-12T20:43:34.000Z</time>
      </trkpt>
      <trkpt lat="44.13614" lon="5.3402">
        <ele>1268</ele>
        <time>2026-07-12T20:44:08.000Z</time>
      </trkpt>
      <trkpt lat="44.13615" lon="5.33986">
        <ele>1268</ele>
        <time>2026-07-12T20:44:36.000Z</time>
      </trkpt>
      <trkpt lat="44.13618" lon="5.33929">
        <ele>1268</ele>
        <time>2026-07-12T20:45:23.000Z</time>
      </trkpt>
      <trkpt lat="44.13616" lon="5.33893">
        <ele>1268</ele>
        <time>2026-07-12T20:45:53.000Z</time>
      </trkpt>
      <trkpt lat="44.13625" lon="5.33879">
        <ele>1268</ele>
        <time>2026-07-12T20:46:09.000Z</time>
      </trkpt>
      <trkpt lat="44.13639" lon="5.33875">
        <ele>1268</ele>
        <time>2026-07-12T20:46:25.000Z</time>
      </trkpt>
      <trkpt lat="44.13669" lon="5.33892">
        <ele>1268</ele>
        <time>2026-07-12T20:47:02.000Z</time>
      </trkpt>
      <trkpt lat="44.13712" lon="5.33893">
        <ele>1266</ele>
        <time>2026-07-12T20:47:51.000Z</time>
      </trkpt>
      <trkpt lat="44.13752" lon="5.33896">
        <ele>1265</ele>
        <time>2026-07-12T20:48:37.000Z</time>
      </trkpt>
      <trkpt lat="44.13762" lon="5.33894">
        <ele>1265</ele>
        <time>2026-07-12T20:48:48.000Z</time>
      </trkpt>
      <trkpt lat="44.13771" lon="5.33881">
        <ele>1265</ele>
        <time>2026-07-12T20:49:03.000Z</time>
      </trkpt>
      <trkpt lat="44.13781" lon="5.33824">
        <ele>1263</ele>
        <time>2026-07-12T20:49:51.000Z</time>
      </trkpt>
      <trkpt lat="44.13792" lon="5.33794">
        <ele>1262</ele>
        <time>2026-07-12T20:50:19.000Z</time>
      </trkpt>
      <trkpt lat="44.13796" lon="5.33775">
        <ele>1261</ele>
        <time>2026-07-12T20:50:36.000Z</time>
      </trkpt>
      <trkpt lat="44.13781" lon="5.3375">
        <ele>1260</ele>
        <time>2026-07-12T20:51:02.000Z</time>
      </trkpt>
      <trkpt lat="44.13775" lon="5.33721">
        <ele>1259</ele>
        <time>2026-07-12T20:51:27.000Z</time>
      </trkpt>
      <trkpt lat="44.13771" lon="5.3369">
        <ele>1258</ele>
        <time>2026-07-12T20:51:53.000Z</time>
      </trkpt>
      <trkpt lat="44.1377" lon="5.33652">
        <ele>1257</ele>
        <time>2026-07-12T20:52:24.000Z</time>
      </trkpt>
      <trkpt lat="44.13777" lon="5.33618">
        <ele>1256</ele>
        <time>2026-07-12T20:52:53.000Z</time>
      </trkpt>
      <trkpt lat="44.13786" lon="5.33605">
        <ele>1255</ele>
        <time>2026-07-12T20:53:09.000Z</time>
      </trkpt>
      <trkpt lat="44.13803" lon="5.33607">
        <ele>1253</ele>
        <time>2026-07-12T20:53:28.000Z</time>
      </trkpt>
      <trkpt lat="44.1382" lon="5.33617">
        <ele>1254</ele>
        <time>2026-07-12T20:53:59.000Z</time>
      </trkpt>
      <trkpt lat="44.13831" lon="5.33614">
        <ele>1254</ele>
        <time>2026-07-12T20:54:12.000Z</time>
      </trkpt>
      <trkpt lat="44.13833" lon="5.33598">
        <ele>1253</ele>
        <time>2026-07-12T20:54:26.000Z</time>
      </trkpt>
      <trkpt lat="44.13808" lon="5.33569">
        <ele>1251</ele>
        <time>2026-07-12T20:55:03.000Z</time>
      </trkpt>
      <trkpt lat="44.13787" lon="5.33527">
        <ele>1250</ele>
        <time>2026-07-12T20:55:45.000Z</time>
      </trkpt>
      <trkpt lat="44.13779" lon="5.33506">
        <ele>1248</ele>
        <time>2026-07-12T20:56:04.000Z</time>
      </trkpt>
      <trkpt lat="44.13781" lon="5.33477">
        <ele>1248</ele>
        <time>2026-07-12T20:56:28.000Z</time>
      </trkpt>
      <trkpt lat="44.13781" lon="5.33461">
        <ele>1247</ele>
        <time>2026-07-12T20:56:41.000Z</time>
      </trkpt>
      <trkpt lat="44.13779" lon="5.33444">
        <ele>1246</ele>
        <time>2026-07-12T20:56:55.000Z</time>
      </trkpt>
      <trkpt lat="44.13782" lon="5.33383">
        <ele>1246</ele>
        <time>2026-07-12T20:57:46.000Z</time>
      </trkpt>
      <trkpt lat="44.13792" lon="5.33337">
        <ele>1243</ele>
        <time>2026-07-12T20:58:26.000Z</time>
      </trkpt>
      <trkpt lat="44.13806" lon="5.33287">
        <ele>1240</ele>
        <time>2026-07-12T20:59:09.000Z</time>
      </trkpt>
      <trkpt lat="44.13815" lon="5.33258">
        <ele>1239</ele>
        <time>2026-07-12T20:59:35.000Z</time>
      </trkpt>
      <trkpt lat="44.13833" lon="5.33232">
        <ele>1238</ele>
        <time>2026-07-12T21:00:05.000Z</time>
      </trkpt>
      <trkpt lat="44.13857" lon="5.33226">
        <ele>1238</ele>
        <time>2026-07-12T21:00:33.000Z</time>
      </trkpt>
      <trkpt lat="44.13871" lon="5.33225">
        <ele>1237</ele>
        <time>2026-07-12T21:00:49.000Z</time>
      </trkpt>
      <trkpt lat="44.13875" lon="5.3321">
        <ele>1236</ele>
        <time>2026-07-12T21:01:02.000Z</time>
      </trkpt>
      <trkpt lat="44.13857" lon="5.33182">
        <ele>1235</ele>
        <time>2026-07-12T21:01:33.000Z</time>
      </trkpt>
      <trkpt lat="44.13843" lon="5.33135">
        <ele>1236</ele>
        <time>2026-07-12T21:02:25.000Z</time>
      </trkpt>
      <trkpt lat="44.13845" lon="5.33093">
        <ele>1238</ele>
        <time>2026-07-12T21:03:20.000Z</time>
      </trkpt>
      <trkpt lat="44.13844" lon="5.33063">
        <ele>1239</ele>
        <time>2026-07-12T21:03:54.000Z</time>
      </trkpt>
      <trkpt lat="44.13852" lon="5.33002">
        <ele>1239</ele>
        <time>2026-07-12T21:04:45.000Z</time>
      </trkpt>
      <trkpt lat="44.1386" lon="5.32954">
        <ele>1244</ele>
        <time>2026-07-12T21:06:17.000Z</time>
      </trkpt>
      <trkpt lat="44.13852" lon="5.32873">
        <ele>1242</ele>
        <time>2026-07-12T21:07:25.000Z</time>
      </trkpt>
      <trkpt lat="44.13844" lon="5.32842">
        <ele>1238</ele>
        <time>2026-07-12T21:07:52.000Z</time>
      </trkpt>
      <trkpt lat="44.13839" lon="5.32793">
        <ele>1242</ele>
        <time>2026-07-12T21:09:14.000Z</time>
      </trkpt>
      <trkpt lat="44.13825" lon="5.32726">
        <ele>1241</ele>
        <time>2026-07-12T21:10:11.000Z</time>
      </trkpt>
      <trkpt lat="44.13811" lon="5.32676">
        <ele>1241</ele>
        <time>2026-07-12T21:10:56.000Z</time>
      </trkpt>
      <trkpt lat="44.13794" lon="5.32646">
        <ele>1242</ele>
        <time>2026-07-12T21:11:38.000Z</time>
      </trkpt>
      <trkpt lat="44.13786" lon="5.32622">
        <ele>1241</ele>
        <time>2026-07-12T21:11:59.000Z</time>
      </trkpt>
      <trkpt lat="44.1377" lon="5.32598">
        <ele>1239</ele>
        <time>2026-07-12T21:12:26.000Z</time>
      </trkpt>
      <trkpt lat="44.13764" lon="5.32564">
        <ele>1242</ele>
        <time>2026-07-12T21:13:25.000Z</time>
      </trkpt>
      <trkpt lat="44.13757" lon="5.32544">
        <ele>1241</ele>
        <time>2026-07-12T21:13:44.000Z</time>
      </trkpt>
      <trkpt lat="44.13754" lon="5.32513">
        <ele>1241</ele>
        <time>2026-07-12T21:14:10.000Z</time>
      </trkpt>
      <trkpt lat="44.13757" lon="5.32475">
        <ele>1236</ele>
        <time>2026-07-12T21:14:41.000Z</time>
      </trkpt>
      <trkpt lat="44.13748" lon="5.3241">
        <ele>1228</ele>
        <time>2026-07-12T21:15:36.000Z</time>
      </trkpt>
      <trkpt lat="44.13747" lon="5.32357">
        <ele>1228</ele>
        <time>2026-07-12T21:16:20.000Z</time>
      </trkpt>
      <trkpt lat="44.13758" lon="5.32287">
        <ele>1219</ele>
        <time>2026-07-12T21:17:19.000Z</time>
      </trkpt>
      <trkpt lat="44.13756" lon="5.32248">
        <ele>1220</ele>
        <time>2026-07-12T21:18:02.000Z</time>
      </trkpt>
      <trkpt lat="44.13743" lon="5.32213">
        <ele>1214</ele>
        <time>2026-07-12T21:18:34.000Z</time>
      </trkpt>
      <trkpt lat="44.1373" lon="5.32193">
        <ele>1209</ele>
        <time>2026-07-12T21:18:56.000Z</time>
      </trkpt>
      <trkpt lat="44.13712" lon="5.32178">
        <ele>1207</ele>
        <time>2026-07-12T21:19:19.000Z</time>
      </trkpt>
      <trkpt lat="44.137" lon="5.32159">
        <ele>1205</ele>
        <time>2026-07-12T21:19:41.000Z</time>
      </trkpt>
      <trkpt lat="44.13688" lon="5.32119">
        <ele>1201</ele>
        <time>2026-07-12T21:20:16.000Z</time>
      </trkpt>
      <trkpt lat="44.13689" lon="5.32063">
        <ele>1189</ele>
        <time>2026-07-12T21:21:02.000Z</time>
      </trkpt>
      <trkpt lat="44.13684" lon="5.31994">
        <ele>1178</ele>
        <time>2026-07-12T21:21:59.000Z</time>
      </trkpt>
      <trkpt lat="44.13682" lon="5.31963">
        <ele>1172</ele>
        <time>2026-07-12T21:22:25.000Z</time>
      </trkpt>
      <trkpt lat="44.13682" lon="5.31924">
        <ele>1165</ele>
        <time>2026-07-12T21:22:57.000Z</time>
      </trkpt>
      <trkpt lat="44.13682" lon="5.31907">
        <ele>1164</ele>
        <time>2026-07-12T21:23:10.000Z</time>
      </trkpt>
      <trkpt lat="44.13688" lon="5.31884">
        <ele>1160</ele>
        <time>2026-07-12T21:23:30.000Z</time>
      </trkpt>
      <trkpt lat="44.13685" lon="5.31872">
        <ele>1160</ele>
        <time>2026-07-12T21:23:41.000Z</time>
      </trkpt>
      <trkpt lat="44.13679" lon="5.31861">
        <ele>1161</ele>
        <time>2026-07-12T21:24:02.000Z</time>
      </trkpt>
      <trkpt lat="44.13682" lon="5.31838">
        <ele>1160</ele>
        <time>2026-07-12T21:24:22.000Z</time>
      </trkpt>
      <trkpt lat="44.1369" lon="5.31815">
        <ele>1161</ele>
        <time>2026-07-12T21:24:53.000Z</time>
      </trkpt>
      <trkpt lat="44.1369" lon="5.31815">
        <ele>1161</ele>
        <time>2026-07-12T21:24:53.000Z</time>
      </trkpt>
      <trkpt lat="44.1369" lon="5.31785">
        <ele>1161</ele>
        <time>2026-07-12T21:25:17.000Z</time>
      </trkpt>
      <trkpt lat="44.13679" lon="5.3175">
        <ele>1161</ele>
        <time>2026-07-12T21:25:49.000Z</time>
      </trkpt>
      <trkpt lat="44.13665" lon="5.31729">
        <ele>1160</ele>
        <time>2026-07-12T21:26:13.000Z</time>
      </trkpt>
      <trkpt lat="44.1365" lon="5.31711">
        <ele>1159</ele>
        <time>2026-07-12T21:26:35.000Z</time>
      </trkpt>
      <trkpt lat="44.13633" lon="5.31697">
        <ele>1160</ele>
        <time>2026-07-12T21:27:09.000Z</time>
      </trkpt>
      <trkpt lat="44.13612" lon="5.31681">
        <ele>1160</ele>
        <time>2026-07-12T21:27:36.000Z</time>
      </trkpt>
      <trkpt lat="44.13592" lon="5.31668">
        <ele>1159</ele>
        <time>2026-07-12T21:28:01.000Z</time>
      </trkpt>
      <trkpt lat="44.13563" lon="5.31649">
        <ele>1159</ele>
        <time>2026-07-12T21:28:37.000Z</time>
      </trkpt>
      <trkpt lat="44.13532" lon="5.31633">
        <ele>1159</ele>
        <time>2026-07-12T21:29:15.000Z</time>
      </trkpt>
      <trkpt lat="44.13491" lon="5.31618">
        <ele>1158</ele>
        <time>2026-07-12T21:30:03.000Z</time>
      </trkpt>
      <trkpt lat="44.13463" lon="5.31607">
        <ele>1159</ele>
        <time>2026-07-12T21:30:46.000Z</time>
      </trkpt>
      <trkpt lat="44.13436" lon="5.31596">
        <ele>1158</ele>
        <time>2026-07-12T21:31:19.000Z</time>
      </trkpt>
      <trkpt lat="44.13413" lon="5.31583">
        <ele>1158</ele>
        <time>2026-07-12T21:31:47.000Z</time>
      </trkpt>
      <trkpt lat="44.13382" lon="5.3156">
        <ele>1157</ele>
        <time>2026-07-12T21:32:27.000Z</time>
      </trkpt>
      <trkpt lat="44.13355" lon="5.31538">
        <ele>1157</ele>
        <time>2026-07-12T21:33:04.000Z</time>
      </trkpt>
      <trkpt lat="44.13325" lon="5.31514">
        <ele>1157</ele>
        <time>2026-07-12T21:33:43.000Z</time>
      </trkpt>
      <trkpt lat="44.1331" lon="5.31499">
        <ele>1158</ele>
        <time>2026-07-12T21:34:15.000Z</time>
      </trkpt>
      <trkpt lat="44.13286" lon="5.31487">
        <ele>1154</ele>
        <time>2026-07-12T21:34:44.000Z</time>
      </trkpt>
      <trkpt lat="44.1326" lon="5.31471">
        <ele>1152</ele>
        <time>2026-07-12T21:35:17.000Z</time>
      </trkpt>
      <trkpt lat="44.1324" lon="5.31457">
        <ele>1151</ele>
        <time>2026-07-12T21:35:43.000Z</time>
      </trkpt>
      <trkpt lat="44.13218" lon="5.31442">
        <ele>1148</ele>
        <time>2026-07-12T21:36:11.000Z</time>
      </trkpt>
      <trkpt lat="44.13195" lon="5.31412">
        <ele>1148</ele>
        <time>2026-07-12T21:36:47.000Z</time>
      </trkpt>
      <trkpt lat="44.13156" lon="5.31354">
        <ele>1147</ele>
        <time>2026-07-12T21:37:52.000Z</time>
      </trkpt>
      <trkpt lat="44.13108" lon="5.31306">
        <ele>1146</ele>
        <time>2026-07-12T21:39:00.000Z</time>
      </trkpt>
      <trkpt lat="44.13045" lon="5.31256">
        <ele>1144</ele>
        <time>2026-07-12T21:40:23.000Z</time>
      </trkpt>
      <trkpt lat="44.1298" lon="5.3122">
        <ele>1138</ele>
        <time>2026-07-12T21:41:43.000Z</time>
      </trkpt>
      <trkpt lat="44.12944" lon="5.31197">
        <ele>1136</ele>
        <time>2026-07-12T21:42:28.000Z</time>
      </trkpt>
      <trkpt lat="44.12928" lon="5.31182">
        <ele>1135</ele>
        <time>2026-07-12T21:42:50.000Z</time>
      </trkpt>
      <trkpt lat="44.1293" lon="5.31148">
        <ele>1135</ele>
        <time>2026-07-12T21:43:18.000Z</time>
      </trkpt>
      <trkpt lat="44.12937" lon="5.31112">
        <ele>1134</ele>
        <time>2026-07-12T21:43:49.000Z</time>
      </trkpt>
      <trkpt lat="44.12945" lon="5.31088">
        <ele>1133</ele>
        <time>2026-07-12T21:44:10.000Z</time>
      </trkpt>
      <trkpt lat="44.12985" lon="5.31038">
        <ele>1135</ele>
        <time>2026-07-12T21:45:32.000Z</time>
      </trkpt>
      <trkpt lat="44.13018" lon="5.30999">
        <ele>1136</ele>
        <time>2026-07-12T21:46:32.000Z</time>
      </trkpt>
      <trkpt lat="44.1306" lon="5.30944">
        <ele>1138</ele>
        <time>2026-07-12T21:47:58.000Z</time>
      </trkpt>
      <trkpt lat="44.13094" lon="5.30901">
        <ele>1138</ele>
        <time>2026-07-12T21:48:51.000Z</time>
      </trkpt>
      <trkpt lat="44.13135" lon="5.30851">
        <ele>1137</ele>
        <time>2026-07-12T21:49:54.000Z</time>
      </trkpt>
      <trkpt lat="44.13175" lon="5.30811">
        <ele>1135</ele>
        <time>2026-07-12T21:50:49.000Z</time>
      </trkpt>
      <trkpt lat="44.13192" lon="5.30795">
        <ele>1133</ele>
        <time>2026-07-12T21:51:13.000Z</time>
      </trkpt>
      <trkpt lat="44.13204" lon="5.30781">
        <ele>1132</ele>
        <time>2026-07-12T21:51:30.000Z</time>
      </trkpt>
      <trkpt lat="44.13222" lon="5.30766">
        <ele>1132</ele>
        <time>2026-07-12T21:51:54.000Z</time>
      </trkpt>
      <trkpt lat="44.13226" lon="5.30753">
        <ele>1132</ele>
        <time>2026-07-12T21:52:06.000Z</time>
      </trkpt>
      <trkpt lat="44.13227" lon="5.30724">
        <ele>1133</ele>
        <time>2026-07-12T21:52:40.000Z</time>
      </trkpt>
      <trkpt lat="44.13215" lon="5.3066">
        <ele>1133</ele>
        <time>2026-07-12T21:53:34.000Z</time>
      </trkpt>
      <trkpt lat="44.13179" lon="5.30544">
        <ele>1134</ele>
        <time>2026-07-12T21:55:28.000Z</time>
      </trkpt>
      <trkpt lat="44.13163" lon="5.30486">
        <ele>1135</ele>
        <time>2026-07-12T21:56:29.000Z</time>
      </trkpt>
      <trkpt lat="44.13156" lon="5.30452">
        <ele>1135</ele>
        <time>2026-07-12T21:56:58.000Z</time>
      </trkpt>
      <trkpt lat="44.13149" lon="5.30413">
        <ele>1136</ele>
        <time>2026-07-12T21:57:41.000Z</time>
      </trkpt>
      <trkpt lat="44.13141" lon="5.3037">
        <ele>1135</ele>
        <time>2026-07-12T21:58:17.000Z</time>
      </trkpt>
      <trkpt lat="44.13137" lon="5.30325">
        <ele>1136</ele>
        <time>2026-07-12T21:59:05.000Z</time>
      </trkpt>
      <trkpt lat="44.13137" lon="5.30223">
        <ele>1136</ele>
        <time>2026-07-12T22:00:29.000Z</time>
      </trkpt>
      <trkpt lat="44.13134" lon="5.30178">
        <ele>1137</ele>
        <time>2026-07-12T22:01:16.000Z</time>
      </trkpt>
      <trkpt lat="44.13129" lon="5.30123">
        <ele>1137</ele>
        <time>2026-07-12T22:02:02.000Z</time>
      </trkpt>
      <trkpt lat="44.13121" lon="5.30087">
        <ele>1137</ele>
        <time>2026-07-12T22:02:33.000Z</time>
      </trkpt>
      <trkpt lat="44.13109" lon="5.30061">
        <ele>1137</ele>
        <time>2026-07-12T22:02:58.000Z</time>
      </trkpt>
      <trkpt lat="44.13093" lon="5.30038">
        <ele>1137</ele>
        <time>2026-07-12T22:03:25.000Z</time>
      </trkpt>
      <trkpt lat="44.13072" lon="5.30005">
        <ele>1137</ele>
        <time>2026-07-12T22:04:01.000Z</time>
      </trkpt>
      <trkpt lat="44.13059" lon="5.29975">
        <ele>1136</ele>
        <time>2026-07-12T22:04:30.000Z</time>
      </trkpt>
      <trkpt lat="44.1305" lon="5.2995">
        <ele>1137</ele>
        <time>2026-07-12T22:05:04.000Z</time>
      </trkpt>
      <trkpt lat="44.13045" lon="5.29905">
        <ele>1136</ele>
        <time>2026-07-12T22:05:42.000Z</time>
      </trkpt>
      <trkpt lat="44.1305" lon="5.29883">
        <ele>1136</ele>
        <time>2026-07-12T22:06:01.000Z</time>
      </trkpt>
      <trkpt lat="44.13059" lon="5.29857">
        <ele>1137</ele>
        <time>2026-07-12T22:06:35.000Z</time>
      </trkpt>
      <trkpt lat="44.13073" lon="5.29834">
        <ele>1136</ele>
        <time>2026-07-12T22:07:00.000Z</time>
      </trkpt>
      <trkpt lat="44.1309" lon="5.29812">
        <ele>1137</ele>
        <time>2026-07-12T22:07:36.000Z</time>
      </trkpt>
      <trkpt lat="44.13109" lon="5.29784">
        <ele>1136</ele>
        <time>2026-07-12T22:08:08.000Z</time>
      </trkpt>
      <trkpt lat="44.13144" lon="5.29752">
        <ele>1136</ele>
        <time>2026-07-12T22:08:56.000Z</time>
      </trkpt>
      <trkpt lat="44.13209" lon="5.29701">
        <ele>1137</ele>
        <time>2026-07-12T22:10:32.000Z</time>
      </trkpt>
      <trkpt lat="44.13246" lon="5.29678">
        <ele>1139</ele>
        <time>2026-07-12T22:11:38.000Z</time>
      </trkpt>
      <trkpt lat="44.13272" lon="5.29673">
        <ele>1139</ele>
        <time>2026-07-12T22:12:08.000Z</time>
      </trkpt>
      <trkpt lat="44.13299" lon="5.29679">
        <ele>1140</ele>
        <time>2026-07-12T22:12:50.000Z</time>
      </trkpt>
      <trkpt lat="44.13319" lon="5.29698">
        <ele>1139</ele>
        <time>2026-07-12T22:13:18.000Z</time>
      </trkpt>
      <trkpt lat="44.13345" lon="5.29734">
        <ele>1140</ele>
        <time>2026-07-12T22:14:10.000Z</time>
      </trkpt>
      <trkpt lat="44.13379" lon="5.2977">
        <ele>1139</ele>
        <time>2026-07-12T22:15:00.000Z</time>
      </trkpt>
      <trkpt lat="44.13403" lon="5.29816">
        <ele>1141</ele>
        <time>2026-07-12T22:16:07.000Z</time>
      </trkpt>
      <trkpt lat="44.13416" lon="5.29853">
        <ele>1141</ele>
        <time>2026-07-12T22:16:41.000Z</time>
      </trkpt>
      <trkpt lat="44.13429" lon="5.2989">
        <ele>1141</ele>
        <time>2026-07-12T22:17:14.000Z</time>
      </trkpt>
      <trkpt lat="44.13439" lon="5.29924">
        <ele>1141</ele>
        <time>2026-07-12T22:17:45.000Z</time>
      </trkpt>
      <trkpt lat="44.13447" lon="5.29983">
        <ele>1141</ele>
        <time>2026-07-12T22:18:34.000Z</time>
      </trkpt>
      <trkpt lat="44.13455" lon="5.30022">
        <ele>1142</ele>
        <time>2026-07-12T22:19:18.000Z</time>
      </trkpt>
      <trkpt lat="44.13465" lon="5.30035">
        <ele>1142</ele>
        <time>2026-07-12T22:19:34.000Z</time>
      </trkpt>
    </trkseg>
  </trk>
</gpx>